Terminal Aerodrome Forecast
Issued by NWS

Home | Current Version | Previous Version | Text Only | Print | Product List | Glossary On
Versions: 1 2 3 4 5 6 7 8 9 10 11 12 13 14 15 16 17 18
000
FTUS43 KFGF 311730 AAA
TAFDVL
TAF AMD
KDVL 311730Z 3118/0118 21015KT P6SM BKN015
     FM311900 21015KT P6SM BKN020
     FM312000 21014KT P6SM VCSH BKN025
     FM312300 22011KT P6SM -SHRA BKN040
     FM010200 25010KT 6SM -SHRA OVC015
     FM010400 29010KT 5SM -SHRA OVC003
     FM010500 31011KT P6SM VCSH OVC003
     FM011200 32014KT P6SM OVC008=

USA.gov is the U.S. government's official web portal to all federal, state and local government web resources and services.